createdAt,value
2022-08-30T00:01:30.880Z,14.45
2022-08-30T00:06:32.623Z,14.17
2022-08-30T00:11:34.192Z,14.19
2022-08-30T00:16:35.784Z,14.12
2022-08-30T00:21:39.443Z,14.21
2022-08-30T00:26:41.052Z,14.10
2022-08-30T00:31:42.626Z,14.05
2022-08-30T00:36:45.187Z,14.11
2022-08-30T00:41:47.081Z,14.13
2022-08-30T00:46:48.694Z,14.20
2022-08-30T00:51:50.671Z,14.24
2022-08-30T00:56:52.898Z,14.20
2022-08-30T01:01:54.845Z,14.04
2022-08-30T01:06:56.642Z,13.95
2022-08-30T01:11:58.327Z,14.00
2022-08-30T01:17:03.640Z,13.91
2022-08-30T01:22:48.134Z,13.83
2022-08-30T01:28:04.894Z,13.78
2022-08-30T01:33:08.441Z,13.75
2022-08-30T01:38:11.984Z,13.56
2022-08-30T01:43:15.661Z,13.61
2022-08-30T01:48:18.438Z,13.53
2022-08-30T01:53:20.340Z,13.58
2022-08-30T01:58:23.282Z,13.47
2022-08-30T02:03:26.489Z,13.52
2022-08-30T02:08:28.152Z,13.49
2022-08-30T02:13:30.982Z,13.49
2022-08-30T02:18:34.662Z,13.51
2022-08-30T02:23:36.968Z,13.43
2022-08-30T02:28:49.651Z,13.34
2022-08-30T02:33:53.292Z,13.28
2022-08-30T02:38:55.085Z,13.21
2022-08-30T02:43:59.411Z,13.25
2022-08-30T02:49:13.013Z,13.25
2022-08-30T02:54:22.981Z,13.23
2022-08-30T02:59:24.765Z,13.18
2022-08-30T03:04:26.749Z,13.21
2022-08-30T03:09:28.735Z,13.25
2022-08-30T03:14:31.321Z,13.05
2022-08-30T03:19:35.372Z,13.07
2022-08-30T03:24:37.526Z,13.03
2022-08-30T03:29:39.380Z,12.94
2022-08-30T03:34:41.031Z,12.98
2022-08-30T03:39:45.251Z,13.01
2022-08-30T03:44:46.977Z,13.06
2022-08-30T03:49:48.699Z,13.02
2022-08-30T03:54:50.463Z,12.98
2022-08-30T03:59:52.063Z,12.80
2022-08-30T04:04:53.672Z,12.66
2022-08-30T04:09:55.331Z,12.67
2022-08-30T04:14:56.933Z,12.72
2022-08-30T04:20:03.427Z,12.80
2022-08-30T04:25:06.373Z,12.76
2022-08-30T04:30:08.379Z,12.83
2022-08-30T04:35:10.906Z,12.74
2022-08-30T04:40:14.201Z,12.76
2022-08-30T04:45:16.399Z,12.65
2022-08-30T04:50:20.557Z,12.61
2022-08-30T04:55:22.299Z,12.58
2022-08-30T05:00:23.948Z,12.57
2022-08-30T05:05:40.927Z,12.59
2022-08-30T05:11:09.439Z,12.61
2022-08-30T05:16:11.274Z,12.66
2022-08-30T05:21:19.479Z,12.73
2022-08-30T05:26:25.116Z,12.81
2022-08-30T05:31:30.525Z,12.90
2022-08-30T05:36:35.161Z,12.97
2022-08-30T05:41:38.011Z,13.10
2022-08-30T05:46:45.634Z,13.27
2022-08-30T05:51:47.254Z,13.45
2022-08-30T05:56:48.784Z,13.61
2022-08-30T06:01:50.406Z,13.71
2022-08-30T06:06:52.273Z,13.89
2022-08-30T06:11:53.886Z,14.06
2022-08-30T06:16:55.570Z,14.23
2022-08-30T06:21:57.284Z,14.48
2022-08-30T06:26:58.964Z,14.62
2022-08-30T06:32:00.486Z,14.76
2022-08-30T06:37:02.075Z,14.87
2022-08-30T06:42:03.865Z,15.14
2022-08-30T06:47:08.027Z,15.45
2022-08-30T06:52:09.840Z,15.63
2022-08-30T06:57:13.066Z,15.80
2022-08-30T07:02:14.725Z,16.37
2022-08-30T07:07:16.441Z,16.71
2022-08-30T07:12:17.953Z,16.92
2022-08-30T07:17:38.193Z,17.50
2022-08-30T07:22:40.720Z,18.01
2022-08-30T07:27:42.677Z,18.10
2022-08-30T07:32:44.488Z,18.07
2022-08-30T07:37:46.106Z,18.27
2022-08-30T07:42:48.689Z,18.57
2022-08-30T07:47:50.356Z,18.94
2022-08-30T07:52:51.887Z,18.90
2022-08-30T07:57:53.472Z,19.14
2022-08-30T08:02:55.335Z,19.48
2022-08-30T08:07:57.122Z,19.32
2022-08-30T08:13:00.392Z,19.96
2022-08-30T08:18:01.974Z,20.42
2022-08-30T08:23:04.781Z,20.29
2022-08-30T08:28:06.570Z,20.35
2022-08-30T08:33:08.563Z,20.20
2022-08-30T08:38:10.279Z,20.37
2022-08-30T08:43:15.379Z,20.68
2022-08-30T08:48:59.191Z,20.84
2022-08-30T08:54:08.586Z,20.52
2022-08-30T08:59:12.053Z,20.65
2022-08-30T09:04:22.922Z,21.45
2022-08-30T09:09:34.810Z,20.83
2022-08-30T09:14:45.963Z,21.32
2022-08-30T09:19:54.128Z,21.56
2022-08-30T09:25:00.651Z,22.12
2022-08-30T09:30:14.201Z,21.77
2022-08-30T09:35:42.484Z,21.92
2022-08-30T09:40:57.503Z,21.86
2022-08-30T09:45:59.795Z,21.74
2022-08-30T09:51:10.328Z,21.72
2022-08-30T09:56:19.425Z,21.94
2022-08-30T10:01:28.347Z,21.66
2022-08-30T10:06:37.279Z,23.11
2022-08-30T10:12:27.152Z,22.98
2022-08-30T10:17:42.227Z,23.11
2022-08-30T10:22:57.635Z,22.77
2022-08-30T10:28:09.307Z,22.05
2022-08-30T10:33:20.915Z,22.90
2022-08-30T10:38:38.988Z,23.12
2022-08-30T10:44:19.187Z,23.58
2022-08-30T10:49:28.308Z,22.77
2022-08-30T10:54:31.920Z,23.50
2022-08-30T10:59:38.426Z,23.22
2022-08-30T11:05:08.018Z,23.68
2022-08-30T11:10:42.925Z,23.28
2022-08-30T11:16:01.871Z,24.53
2022-08-30T11:21:24.556Z,23.81
2022-08-30T11:26:45.330Z,23.99
2022-08-30T11:31:47.447Z,24.14
2022-08-30T11:36:52.951Z,23.70
2022-08-30T11:42:34.007Z,24.38
2022-08-30T11:47:49.625Z,23.85
2022-08-30T11:53:16.104Z,24.75
2022-08-30T11:58:43.938Z,24.58
2022-08-30T12:04:05.476Z,24.19
2022-08-30T12:09:09.571Z,23.82
2022-08-30T12:14:41.007Z,23.82
2022-08-30T12:19:49.085Z,24.01
2022-08-30T12:24:53.733Z,24.44
2022-08-30T12:29:59.449Z,24.56
2022-08-30T12:35:05.209Z,24.43
2022-08-30T12:40:20.530Z,24.42
2022-08-30T12:45:37.525Z,23.86
2022-08-30T12:50:54.414Z,23.84
2022-08-30T12:56:05.293Z,24.05
2022-08-30T13:01:31.339Z,25.07
2022-08-30T13:06:43.768Z,24.28
2022-08-30T13:12:08.120Z,24.65
2022-08-30T13:17:21.509Z,24.08
2022-08-30T13:22:35.743Z,24.33
2022-08-30T13:27:39.887Z,24.05
2022-08-30T13:32:49.347Z,23.94
2022-08-30T13:37:51.355Z,24.21
2022-08-30T13:42:53.745Z,24.31
2022-08-30T13:47:55.924Z,23.94
2022-08-30T13:53:04.631Z,23.86
2022-08-30T13:58:06.323Z,24.02
2022-08-30T14:03:09.036Z,23.98
2022-08-30T14:14:25.182Z,23.86
2022-08-30T14:19:41.092Z,24.24
2022-08-30T14:24:42.832Z,24.13
2022-08-30T14:29:46.852Z,24.04
2022-08-30T14:35:00.749Z,24.06
2022-08-30T14:40:03.342Z,24.15
2022-08-30T14:45:05.543Z,23.89
2022-08-30T14:50:07.758Z,23.48
2022-08-30T14:55:18.865Z,23.68
2022-08-30T15:00:23.425Z,23.61
2022-08-30T15:05:27.410Z,23.75
2022-08-30T15:10:28.934Z,23.68
2022-08-30T15:15:30.508Z,23.57
2022-08-30T15:20:32.154Z,23.81
2022-08-30T15:25:33.689Z,23.59
2022-08-30T15:30:35.911Z,23.49
2022-08-30T15:35:37.461Z,23.42
2022-08-30T15:40:39.409Z,23.62
2022-08-30T15:45:41.204Z,23.55
2022-08-30T15:50:42.733Z,23.47
2022-08-30T15:55:46.463Z,23.67
2022-08-30T16:00:48.020Z,23.44
2022-08-30T16:05:49.550Z,23.37
2022-08-30T16:10:52.681Z,23.43
2022-08-30T16:15:54.314Z,23.48
2022-08-30T16:21:06.745Z,23.21
2022-08-30T16:26:09.182Z,23.26
2022-08-30T16:31:12.386Z,23.03
2022-08-30T16:36:17.362Z,22.89
2022-08-30T16:41:21.451Z,22.98
2022-08-30T16:46:27.279Z,22.85
2022-08-30T16:51:31.635Z,22.81
2022-08-30T16:56:35.089Z,22.70
2022-08-30T17:01:38.191Z,22.65
2022-08-30T17:06:40.107Z,22.57
2022-08-30T17:11:42.724Z,22.50
2022-08-30T17:16:45.376Z,22.28
2022-08-30T17:21:47.010Z,22.07
2022-08-30T17:26:48.760Z,21.94
2022-08-30T17:31:51.496Z,21.83
2022-08-30T17:36:54.982Z,21.73
2022-08-30T17:41:56.821Z,21.68
2022-08-30T17:47:00.361Z,21.44
2022-08-30T17:52:03.812Z,21.28
2022-08-30T17:57:10.635Z,21.03
2022-08-30T18:02:14.646Z,21.00
2022-08-30T18:07:16.562Z,20.75
2022-08-30T18:12:22.337Z,20.70
2022-08-30T18:17:23.911Z,20.49
2022-08-30T18:22:25.547Z,20.31
2022-08-30T18:27:28.375Z,19.97
2022-08-30T18:32:32.883Z,19.86
2022-08-30T18:37:38.119Z,19.60
2022-08-30T18:42:39.944Z,19.56
2022-08-30T18:47:42.915Z,19.28
2022-08-30T18:52:44.968Z,19.11
2022-08-30T18:57:46.725Z,18.90
2022-08-30T19:02:48.539Z,18.51
2022-08-30T19:07:51.829Z,18.31
2022-08-30T19:12:59.746Z,18.19
2022-08-30T19:18:03.089Z,17.99
2022-08-30T19:23:18.499Z,17.74
2022-08-30T19:28:20.741Z,17.74
2022-08-30T19:33:22.319Z,17.50
2022-08-30T19:38:24.525Z,17.22
2022-08-30T19:43:30.720Z,17.49
2022-08-30T19:48:34.266Z,17.50
2022-08-30T19:53:38.203Z,17.56
2022-08-30T19:58:41.351Z,17.27
2022-08-30T20:03:44.812Z,17.45
2022-08-30T20:08:47.528Z,17.02
2022-08-30T20:13:49.207Z,17.07
2022-08-30T20:18:53.482Z,16.95
2022-08-30T20:23:55.292Z,17.09
2022-08-30T20:28:59.883Z,17.10
2022-08-30T20:34:01.914Z,17.08
2022-08-30T20:39:09.595Z,17.20
2022-08-30T20:44:11.806Z,17.17
2022-08-30T20:49:13.968Z,16.98
2022-08-30T20:54:15.849Z,17.04
2022-08-30T20:59:17.752Z,17.15
2022-08-30T21:04:19.771Z,17.06
2022-08-30T21:09:21.369Z,17.05
2022-08-30T21:14:23.742Z,17.03
2022-08-30T21:19:25.583Z,16.97
2022-08-30T21:24:27.228Z,16.83
2022-08-30T21:29:30.007Z,16.75
2022-08-30T21:34:55.431Z,16.71
2022-08-30T21:39:59.790Z,16.74
2022-08-30T21:45:01.316Z,16.76
2022-08-30T21:50:03.115Z,16.57
2022-08-30T21:55:05.289Z,16.52
2022-08-30T22:00:08.125Z,16.46
2022-08-30T22:05:09.650Z,16.46
2022-08-30T22:10:21.036Z,16.46
2022-08-30T22:15:22.651Z,16.40
2022-08-30T22:20:30.344Z,16.42
2022-08-30T22:25:32.307Z,16.37
2022-08-30T22:30:36.283Z,16.35
2022-08-30T22:35:37.992Z,16.29
2022-08-30T22:40:47.305Z,16.30
2022-08-30T22:45:49.001Z,16.39
2022-08-30T22:50:50.541Z,16.35
2022-08-30T22:55:52.078Z,16.32
2022-08-30T23:00:55.378Z,16.22
2022-08-30T23:05:57.224Z,16.21
2022-08-30T23:10:58.839Z,16.24
2022-08-30T23:16:05.025Z,16.20
2022-08-30T23:21:24.431Z,16.14
2022-08-30T23:26:44.672Z,16.14
2022-08-30T23:32:05.090Z,16.11
2022-08-30T23:37:25.601Z,16.08
2022-08-30T23:42:45.829Z,16.05
2022-08-30T23:48:06.230Z,15.89
2022-08-30T23:53:26.485Z,15.90
2022-08-30T23:58:46.739Z,15.86
